Flight Track Log - Related Links

Times and Time Zones

All times are in EDT time to prevent confusion due to time zone crossing. See the KAL1241 flight status page for this flight to view local times or setup timezone preferences in your user account.

Time Position Orientation Groundspeed Altitude Reporting Facility
EDT Latitude Longitude Course Direction KTS MPH feet Rate Location/Type
Mon 01:43:00 AM 37.1795 126.7614 184° South  Level Estimated
Mon 01:44:00 AM 37.0532 126.7517 183° South  Level Estimated
Mon 01:45:00 AM 36.9270 126.7421 183° South  Level Estimated
Mon 01:46:00 AM 36.8007 126.7325 183° South  Level Estimated
Mon 01:47:00 AM 36.6744 126.7230 183° South  Level Estimated
Mon 01:48:00 AM 36.5482 126.7134 183° South  Level Estimated
Mon 01:49:00 AM 36.4219 126.7039 183° South  Level Estimated
Mon 01:50:00 AM 36.2956 126.6945 183° South  Level Estimated
Mon 01:51:00 AM 36.1693 126.6850 183° South  Level Estimated
Mon 01:52:00 AM 36.0431 126.6756 183° South  Level Estimated
Mon 01:53:00 AM 35.9168 126.6662 183° South  Level Estimated
Mon 01:54:00 AM 35.7905 126.6569 183° South  Level Estimated
Mon 01:55:00 AM 35.6642 126.6476 183° South  Level Estimated
Mon 01:56:00 AM 35.5379 126.6383 183° South  Level Estimated
Mon 01:57:00 AM 35.4117 126.6290 183° South  Level Estimated
Mon 01:58:00 AM 35.2854 126.6198 183° South  Level Estimated
Mon 01:59:00 AM 35.1591 126.6106 183° South  Level Estimated
Mon 02:00:00 AM 35.0328 126.6014 183° South  Level Estimated
Mon 02:01:00 AM 34.9065 126.5923 183° South  Level Estimated
Mon 02:02:00 AM 34.7803 126.5831 183° South  Level Estimated
Mon 02:03:00 AM 34.6540 126.5741 183° South  Level Estimated
Mon 02:04:00 AM 34.5277 126.5650 183° South  Level Estimated
Mon 02:05:00 AM 34.4014 126.5559 183° South  Level Estimated
Mon 02:06:00 AM 34.2751 126.5469 183° South  Level Estimated
Mon 02:07:00 AM 34.1488 126.5380 183° South  Level Estimated
Mon 02:08:00 AM 34.0225 126.5290 183° South  Level Estimated
Mon 02:09:00 AM 33.8963 126.5201 183° South  Level Estimated
Mon 02:10:00 AM 33.7700 126.5112 183° South  Level Estimated
Mon 02:11:00 AM 33.6937 126.5058 183° South  Level Estimated
Mon 02:12:00 AM 33.6175 126.5005 183° South  Level Estimated
Mon 02:13:00 AM 33.5412 126.4951 183° South  Level Estimated
Mon 02:14:00 AM 33.5113 126.4930 183° South  Level Estimated
Mon 02:15:00 AM 33.5113 126.4930 203° Southwest  Level Estimated
Mon 02:16:00 AM 33.5113 126.4930 203° Southwest  Level Estimated
Mon 02:17:00 AM 33.5113 126.4930 203° Southwest  Level Estimated
Mon 02:18:00 AM 33.5113 126.4930 203° Southwest  Level Estimated
Mon 02:19:00 AM 33.5113 126.4930 203° Southwest  Level Estimated
Mon 02:20:00 AM 33.5113 126.4930 203° Southwest  Level Estimated
Mon 02:21:00 AM 33.5113 126.4930 203° Southwest  Level Estimated
Mon 02:22:00 AM 33.5113 126.4930 203° Southwest  Level Estimated
Mon 02:23:00 AM 33.5113 126.4930 203° Southwest  Level Estimated
Mon 02:24:00 AM 33.5113 126.4930 203° Southwest  Level Estimated
Mon 02:25:00 AM 33.5113 126.4930 203° Southwest  Level Estimated
Mon 02:26:00 AM 33.5113 126.4930 203° Southwest  Level Estimated
Mon 02:27:00 AM 33.5113 126.4930 203° Southwest  Level Estimated
Mon 02:28:00 AM 33.5113 126.4930 203° Southwest  Level Estimated

Login

Don't have an account? Register now (free) for customized features, flight alerts, and more!